Austinville, Virginia
Current Conditions -  °F | °C
As of 6:55 AM on Monday 22 Dec 2014 (Local Time) from KHLX Reporting Station
Overcast Overcast  
Wind Chill: -2°   Ceiling: 1100
Heat Index:   Visibility: 10mi
Dew Point: -1°   Wind: 5mph
Humidity: 90%   Direction: 40°NE
Pressure: 30.09"   Gusts: NA
Location:  36.85°N, 80.91°W
Report Text: KHLX 221155Z AUTO 04004KT 10SM OVC011 01/M01 A3009 RMK AO2 T00071008 10012 20007
Loading
Personal Weather Stations






























Interactive Weather Map New forecast layout! Learn more

10-Day Weather Forecast

Advertisements
Track Severe Weather on mobile